Time;durP1;ratioP1;P1;durP2;ratioP2;P2;SDS_P1;SDS_P2;PMS_P1;PMS_P2;Temp;Humidity;BMP_temperature;BMP_pressure;BME280_temperature;BME280_humidity;BME280_pressure;Samples;Min_cycle;Max_cycle;Signal;HPM_P1;HPM_P2
2023/05/04 00:02:02;;;;;;;9.93;4.20;;;;;;;11.22;44.04;100690.78;5049627;28;20044;-79
2023/05/04 00:04:28;;;;;;;6.38;4.28;;;;;;;11.21;44.09;100678.50;5051023;28;20481;-78
2023/05/04 00:06:55;;;;;;;8.32;4.35;;;;;;;11.20;44.19;100679.44;5036038;28;20413;-78
2023/05/04 00:09:21;;;;;;;7.88;4.45;;;;;;;11.18;44.13;100679.50;5051098;28;20053;-79
2023/05/04 00:11:48;;;;;;;7.45;4.80;;;;;;;11.18;44.12;100676.88;5049781;28;20053;-78
2023/05/04 00:14:14;;;;;;;10.43;4.70;;;;;;;11.18;44.24;100673.41;5051292;28;20102;-78
2023/05/04 00:16:40;;;;;;;9.15;4.55;;;;;;;11.18;44.32;100673.41;5050360;28;20094;-78
2023/05/04 00:19:07;;;;;;;6.68;4.15;;;;;;;11.15;44.41;100674.38;5050988;28;20099;-78
2023/05/04 00:21:33;;;;;;;8.23;4.10;;;;;;;11.14;44.40;100669.19;5050764;28;20045;-78
2023/05/04 00:24:01;;;;;;;8.55;4.25;;;;;;;11.13;44.27;100667.44;5050908;28;20063;-77
2023/05/04 00:26:27;;;;;;;6.30;4.53;;;;;;;11.11;44.24;100666.69;5049109;28;20081;-78
2023/05/04 00:28:54;;;;;;;6.78;3.88;;;;;;;11.07;44.25;100658.91;5050649;28;20128;-78
2023/05/04 00:31:20;;;;;;;5.18;3.88;;;;;;;11.04;44.32;100655.56;5045920;28;20080;-77
2023/05/04 00:33:47;;;;;;;7.75;4.07;;;;;;;11.01;44.15;100651.28;5030959;28;20049;-79
2023/05/04 00:36:13;;;;;;;7.57;4.25;;;;;;;10.98;44.29;100659.31;5029398;28;20041;-78
2023/05/04 00:38:50;;;;;;;6.47;3.90;;;;;;;10.92;45.47;100649.06;5029173;28;20064;-79
2023/05/04 00:41:18;;;;;;;8.27;3.80;;;;;;;10.91;44.46;100653.47;5031023;28;20093;-80
2023/05/04 00:43:45;;;;;;;7.78;4.10;;;;;;;10.87;44.36;100651.06;5029716;28;20052;-79
2023/05/04 00:46:12;;;;;;;4.75;4.00;;;;;;;10.84;44.41;100648.53;5030195;28;20512;-77
2023/05/04 00:48:47;;;;;;;5.55;4.03;;;;;;;10.78;45.47;100637.34;5029118;28;20107;-77
2023/05/04 00:51:15;;;;;;;6.85;4.45;;;;;;;10.76;44.81;100639.19;5030744;28;20050;-77
2023/05/04 00:53:42;;;;;;;5.60;4.40;;;;;;;10.73;44.61;100636.69;5029476;28;20083;-78
2023/05/04 00:56:09;;;;;;;8.07;4.22;;;;;;;10.70;44.73;100636.84;5030976;28;20056;-78
2023/05/04 00:58:36;;;;;;;5.72;4.53;;;;;;;10.66;44.62;100638.72;5036931;28;20064;-78
2023/05/04 01:01:02;;;;;;;5.32;4.40;;;;;;;10.64;44.75;100629.19;5035998;28;20496;-78
2023/05/04 01:03:30;;;;;;;7.32;4.78;;;;;;;10.62;44.96;100628.41;5037211;28;20044;-79
2023/05/04 01:06:21;;;;;;;10.75;4.28;;;;;;;10.55;45.79;100633.09;5035389;28;20056;-78
2023/05/04 01:09:02;;;;;;;6.95;3.67;;;;;;;10.54;45.86;100623.44;5051348;28;20041;-78
2023/05/04 01:11:57;;;;;;;6.15;4.38;;;;;;;10.50;45.31;100624.53;5055760;28;20041;-78
2023/05/04 01:14:24;;;;;;;10.82;4.70;;;;;;;10.49;44.70;100615.78;5056966;28;20044;-78
2023/05/04 01:16:57;;;;;;;7.03;4.45;;;;;;;10.43;45.86;100613.34;5056059;28;20102;-78
2023/05/04 01:19:26;;;;;;;7.32;4.32;;;;;;;10.41;45.04;100605.53;5057069;28;20044;-79
2023/05/04 01:21:52;;;;;;;8.25;4.70;;;;;;;10.38;45.23;100605.66;5055775;28;20083;-77
2023/05/04 01:24:19;;;;;;;9.60;4.65;;;;;;;10.34;45.29;100604.09;5055728;28;20136;-78
2023/05/04 01:26:51;;;;;;;9.27;5.00;;;;;;;10.32;45.64;100610.34;5054706;28;20397;-78
2023/05/04 01:29:26;;;;;;;5.57;4.80;;;;;;;10.28;46.27;100615.72;5056975;28;20599;-79
2023/05/04 01:31:54;;;;;;;6.50;4.85;;;;;;;10.29;45.44;100612.16;5055429;28;20090;-78
2023/05/04 01:34:21;;;;;;;8.77;4.57;;;;;;;10.27;45.42;100608.75;5055655;28;20040;-79
2023/05/04 01:36:48;;;;;;;7.90;5.00;;;;;;;10.26;45.54;100604.41;5054618;28;20076;-78
2023/05/04 01:39:14;;;;;;;6.20;4.68;;;;;;;10.24;45.61;100611.50;5056674;28;20175;-78
2023/05/04 01:41:41;;;;;;;10.25;5.18;;;;;;;10.23;45.51;100611.56;5056913;28;20107;-78
2023/05/04 01:44:08;;;;;;;8.65;5.35;;;;;;;10.19;45.89;100605.59;5056898;28;20051;-77
2023/05/04 01:46:34;;;;;;;6.00;4.65;;;;;;;10.17;45.99;100608.28;5055950;28;20068;-79
2023/05/04 01:49:01;;;;;;;8.57;5.43;;;;;;;10.15;46.04;100611.88;5056757;28;20107;-79
2023/05/04 01:51:27;;;;;;;11.57;5.07;;;;;;;10.12;45.94;100606.75;5055607;28;20076;-77
2023/05/04 01:53:54;;;;;;;6.55;5.30;;;;;;;10.11;45.99;100607.69;5056395;28;20056;-77
2023/05/04 01:56:21;;;;;;;8.27;5.07;;;;;;;10.08;45.96;100613.06;5056574;28;20049;-78
2023/05/04 01:58:47;;;;;;;7.70;5.15;;;;;;;10.07;46.05;100608.72;5056324;28;20389;-78
2023/05/04 02:01:14;;;;;;;6.03;4.90;;;;;;;10.03;46.18;100606.19;5055514;28;20049;-78
2023/05/04 02:03:40;;;;;;;7.63;5.30;;;;;;;9.99;46.16;100604.63;5056681;28;20040;-77
2023/05/04 02:06:07;;;;;;;9.43;5.50;;;;;;;9.97;46.47;100610.88;5056134;28;20127;-79
2023/05/04 02:08:34;;;;;;;9.75;5.07;;;;;;;9.94;46.13;100609.22;5052825;28;20052;-78
2023/05/04 02:11:00;;;;;;;8.10;5.53;;;;;;;9.93;46.17;100609.28;5053663;28;20067;-77
2023/05/04 02:13:26;;;;;;;8.75;5.43;;;;;;;9.89;46.43;100603.28;5053508;28;20086;-78
2023/05/04 02:15:53;;;;;;;9.35;5.68;;;;;;;9.88;46.50;100606.84;5052899;28;20127;-78
2023/05/04 02:18:19;;;;;;;7.40;5.10;;;;;;;9.85;46.67;100607.84;5052866;28;20051;-78
2023/05/04 02:20:46;;;;;;;5.28;4.75;;;;;;;9.83;46.76;100608.81;5053191;28;20486;-78
2023/05/04 02:23:12;;;;;;;10.75;6.40;;;;;;;9.78;46.37;100596.69;5053263;28;20144;-78
2023/05/04 02:25:40;;;;;;;8.13;5.45;;;;;;;9.77;46.64;100602.84;5052965;28;20052;-79
2023/05/04 02:28:07;;;;;;;7.13;5.60;;;;;;;9.74;46.53;100597.75;5052764;28;20041;-78
2023/05/04 02:30:33;;;;;;;11.48;6.00;;;;;;;9.70;46.82;100587.41;5053109;28;20053;-78
2023/05/04 02:33:00;;;;;;;7.97;5.65;;;;;;;9.67;46.85;100593.63;5052985;28;20048;-78
2023/05/04 02:35:26;;;;;;;10.23;6.63;;;;;;;9.64;47.10;100583.22;5052635;28;20044;-77
2023/05/04 02:37:53;;;;;;;6.40;5.38;;;;;;;9.61;47.17;100583.38;5051224;28;20507;-78
2023/05/04 02:40:19;;;;;;;9.93;5.72;;;;;;;9.58;47.28;100584.34;5052985;28;20041;-78
2023/05/04 02:42:46;;;;;;;7.78;5.45;;;;;;;9.55;47.20;100576.59;5052681;28;20513;-78
2023/05/04 02:45:12;;;;;;;10.93;5.85;;;;;;;9.54;47.36;100576.66;5052228;28;20048;-77
2023/05/04 02:47:39;;;;;;;8.45;5.57;;;;;;;9.52;47.36;100584.59;5052190;28;20124;-76
2023/05/04 02:50:06;;;;;;;10.57;6.35;;;;;;;9.50;47.53;100574.13;5051293;28;20473;-79
2023/05/04 02:52:33;;;;;;;7.75;6.03;;;;;;;9.48;47.52;100573.34;5052994;28;20052;-78
2023/05/04 02:55:02;;;;;;;8.60;6.10;;;;;;;9.45;47.81;100576.09;5052146;28;20048;-80
2023/05/04 02:57:28;;;;;;;8.18;5.93;;;;;;;9.45;47.86;100578.72;5051933;28;20067;-79
2023/05/04 02:59:54;;;;;;;8.40;6.28;;;;;;;9.43;47.79;100571.81;5052385;28;20049;-79
2023/05/04 03:02:21;;;;;;;9.82;5.88;;;;;;;9.41;47.70;100571.88;5052475;28;20048;-78
2023/05/04 03:04:47;;;;;;;9.55;6.38;;;;;;;9.37;47.79;100571.13;5051894;28;20055;-79
2023/05/04 03:07:14;;;;;;;8.38;6.68;;;;;;;9.36;48.23;100568.56;5052060;28;20037;-78
2023/05/04 03:09:40;;;;;;;8.70;6.15;;;;;;;9.35;47.95;100572.94;5051096;28;20045;-79
2023/05/04 03:12:07;;;;;;;10.25;6.57;;;;;;;9.33;47.82;100574.78;5052214;28;20515;-79
2023/05/04 03:14:33;;;;;;;10.35;6.47;;;;;;;9.30;47.81;100572.28;5052064;28;20576;-79
2023/05/04 03:17:00;;;;;;;10.35;6.60;;;;;;;9.27;48.12;100575.00;5050026;28;20051;-78
2023/05/04 03:19:26;;;;;;;12.05;6.47;;;;;;;9.24;48.37;100570.75;5050985;28;20493;-79
2023/05/04 03:21:53;;;;;;;13.25;6.78;;;;;;;9.21;48.37;100560.38;5051909;28;20045;-78
2023/05/04 03:24:19;;;;;;;13.77;6.50;;;;;;;9.20;48.21;100563.06;5050735;28;20061;-78
2023/05/04 03:26:46;;;;;;;9.48;7.00;;;;;;;9.17;48.30;100564.03;5050008;28;20048;-78
2023/05/04 03:29:13;;;;;;;11.82;6.38;;;;;;;9.15;48.29;100560.59;5051976;28;20095;-79
2023/05/04 03:31:39;;;;;;;10.93;6.35;;;;;;;9.12;48.48;100555.44;5050624;28;20036;-77
2023/05/04 03:34:08;;;;;;;10.48;6.72;;;;;;;9.10;48.54;100552.03;5052213;28;20384;-79
2023/05/04 03:36:35;;;;;;;8.80;6.53;;;;;;;9.06;48.54;100547.81;5050813;28;20128;-78
2023/05/04 03:39:01;;;;;;;10.57;6.20;;;;;;;9.03;48.82;100546.16;5051911;28;20045;-78
2023/05/04 03:41:28;;;;;;;10.30;6.90;;;;;;;9.02;48.79;100551.47;5051799;28;20041;-79
2023/05/04 03:43:54;;;;;;;14.15;6.70;;;;;;;8.98;48.61;100546.31;5051718;28;20056;-78
2023/05/04 03:46:21;;;;;;;12.43;6.60;;;;;;;8.97;48.82;100544.63;5051025;28;20075;-78
2023/05/04 03:48:47;;;;;;;10.82;6.78;;;;;;;8.98;48.88;100542.84;5051140;28;20543;-78
2023/05/04 03:51:14;;;;;;;8.30;6.38;;;;;;;8.95;48.88;100550.84;5051625;28;20072;-77
2023/05/04 03:53:41;;;;;;;9.55;6.95;;;;;;;8.93;49.15;100542.19;5050099;28;20096;-78
2023/05/04 03:56:10;;;;;;;11.48;6.75;;;;;;;8.90;49.06;100537.88;5049923;28;20041;-77
2023/05/04 03:58:36;;;;;;;8.93;6.68;;;;;;;8.89;48.97;100541.41;5050941;28;20048;-77
2023/05/04 04:01:03;;;;;;;9.13;6.65;;;;;;;8.88;49.10;100542.34;5051179;28;20143;-77
2023/05/04 04:03:30;;;;;;;14.43;7.65;;;;;;;8.87;49.13;100535.38;5051738;28;20048;-78
2023/05/04 04:05:56;;;;;;;10.80;6.70;;;;;;;8.85;49.31;100535.44;5050896;28;20045;-78
2023/05/04 04:08:23;;;;;;;12.20;7.07;;;;;;;8.84;49.55;100536.34;5049627;28;20045;-78
2023/05/04 04:10:50;;;;;;;8.20;6.60;;;;;;;8.82;49.34;100532.91;5051194;28;20135;-78
2023/05/04 04:13:16;;;;;;;8.45;6.93;;;;;;;8.80;49.54;100534.75;5051024;28;20053;-79
2023/05/04 04:15:45;;;;;;;9.05;6.90;;;;;;;8.79;49.57;100535.66;5049401;28;20477;-77
2023/05/04 04:18:11;;;;;;;9.57;6.78;;;;;;;8.80;49.74;100540.00;5050842;28;20135;-78
2023/05/04 04:20:38;;;;;;;11.48;6.97;;;;;;;8.79;49.63;100533.03;5051046;28;20051;-79
2023/05/04 04:23:04;;;;;;;11.48;7.50;;;;;;;8.79;49.64;100532.19;5050890;28;20053;-79
2023/05/04 04:25:31;;;;;;;9.80;6.78;;;;;;;8.79;49.81;100532.19;5050405;28;20478;-78
2023/05/04 04:27:57;;;;;;;9.23;7.05;;;;;;;8.78;49.55;100533.09;5049079;28;20405;-78
2023/05/04 04:30:24;;;;;;;10.65;6.60;;;;;;;8.79;50.11;100533.03;5050757;28;20128;-78
2023/05/04 04:32:51;;;;;;;8.70;6.65;;;;;;;8.80;49.99;100533.88;5050769;28;20048;-79
2023/05/04 04:35:17;;;;;;;9.18;6.57;;;;;;;8.80;50.28;100534.75;5050526;28;20132;-79
2023/05/04 04:37:44;;;;;;;10.13;6.57;;;;;;;8.81;49.99;100541.72;5050186;28;20045;-79
2023/05/04 04:40:11;;;;;;;13.82;6.88;;;;;;;8.84;50.17;100540.75;5049412;28;20041;-78
2023/05/04 04:42:38;;;;;;;10.95;6.63;;;;;;;8.86;50.21;100538.94;5050560;28;20045;-78
2023/05/04 04:45:05;;;;;;;10.20;7.05;;;;;;;8.89;50.29;100543.22;5050270;28;20484;-78
2023/05/04 04:47:32;;;;;;;10.70;6.28;;;;;;;8.91;50.05;100546.63;5050309;28;20208;-78
2023/05/04 04:49:59;;;;;;;9.25;6.13;;;;;;;8.92;50.55;100533.44;5050856;28;20041;-78
2023/05/04 04:52:25;;;;;;;7.93;6.70;;;;;;;8.95;50.68;100537.72;5050520;28;20051;-78
2023/05/04 04:54:52;;;;;;;8.98;6.72;;;;;;;8.97;50.44;100536.72;5050317;28;20134;-79
2023/05/04 04:57:18;;;;;;;10.32;6.82;;;;;;;8.99;50.76;100531.44;5048858;28;20078;-77
2023/05/04 04:59:45;;;;;;;10.38;6.47;;;;;;;9.02;50.69;100531.31;5049537;28;20037;-77
2023/05/04 05:02:11;;;;;;;11.80;6.93;;;;;;;9.06;50.53;100529.44;5050577;28;20048;-77
2023/05/04 05:04:39;;;;;;;10.30;7.07;;;;;;;9.09;50.56;100526.69;5049174;28;20057;-79
2023/05/04 05:07:09;;;;;;;10.00;6.40;;;;;;;9.13;50.87;100528.28;5048146;28;20045;-79
2023/05/04 05:09:36;;;;;;;9.32;6.22;;;;;;;9.17;51.00;100526.38;5049959;28;20174;-79
2023/05/04 05:12:04;;;;;;;13.35;6.43;;;;;;;9.21;50.86;100525.34;5045874;28;20049;-79
2023/05/04 05:14:30;;;;;;;10.10;6.65;;;;;;;9.23;50.74;100527.00;5030662;28;20085;-78
2023/05/04 05:16:58;;;;;;;13.05;6.22;;;;;;;9.27;50.84;100524.25;5035509;28;20485;-79
2023/05/04 05:19:25;;;;;;;9.13;6.03;;;;;;;9.31;50.76;100523.22;5046565;28;20095;-79
2023/05/04 05:21:51;;;;;;;9.82;6.50;;;;;;;9.33;50.74;100521.38;5045018;28;20132;-80
2023/05/04 05:24:18;;;;;;;14.38;6.80;;;;;;;9.37;50.84;100520.34;5045559;28;20046;-80
2023/05/04 05:26:45;;;;;;;8.98;5.90;;;;;;;9.39;50.63;100521.16;5042932;28;20075;-78
2023/05/04 05:29:11;;;;;;;13.10;6.43;;;;;;;9.44;50.83;100521.81;5050445;28;20052;-78
2023/05/04 05:31:38;;;;;;;13.57;7.07;;;;;;;9.46;50.70;100521.75;5050446;28;20131;-79
2023/05/04 05:34:04;;;;;;;9.85;6.60;;;;;;;9.48;50.78;100510.28;5048809;28;20140;-79
2023/05/04 05:36:31;;;;;;;9.35;6.55;;;;;;;9.51;51.06;100510.16;5048566;28;20129;-78
2023/05/04 05:38:58;;;;;;;10.48;6.30;;;;;;;9.52;50.57;100517.13;5048650;28;20053;-78
2023/05/04 05:41:24;;;;;;;11.60;6.63;;;;;;;9.56;50.74;100519.59;5050271;28;20114;-79
2023/05/04 05:43:51;;;;;;;9.13;6.30;;;;;;;9.58;50.73;100512.53;5050643;28;20048;-79
2023/05/04 05:46:17;;;;;;;10.90;6.88;;;;;;;9.60;50.96;100518.56;5054497;28;20040;-78
2023/05/04 05:48:44;;;;;;;14.73;6.47;;;;;;;9.63;50.66;100515.81;5034728;28;20049;-78
2023/05/04 05:51:10;;;;;;;13.75;6.10;;;;;;;9.65;50.78;100511.38;5033804;28;20053;-79
2023/05/04 05:56:05;;;;;;;8.15;6.28;;;;;;;9.69;51.06;100512.09;5032340;23;20053;-78
2023/05/04 05:58:31;;;;;;;8.27;5.97;;;;;;;9.71;51.01;100512.84;5053339;28;20065;-78
2023/05/04 06:00:58;;;;;;;8.32;6.15;;;;;;;9.73;51.16;100509.28;5052520;28;20041;-78
2023/05/04 06:03:24;;;;;;;10.73;6.10;;;;;;;9.78;50.99;100515.19;5053602;28;20064;-78
2023/05/04 06:05:51;;;;;;;11.48;6.72;;;;;;;9.81;51.00;100514.22;5053091;28;20057;-78
2023/05/04 06:08:17;;;;;;;11.80;6.28;;;;;;;9.85;51.37;100510.53;5053049;28;20045;-78
2023/05/04 06:10:44;;;;;;;10.02;6.38;;;;;;;9.90;51.17;100499.81;5053200;28;20048;-77
2023/05/04 06:13:11;;;;;;;14.15;6.03;;;;;;;9.96;51.23;100493.44;5053384;28;20053;-78
2023/05/04 06:15:38;;;;;;;11.88;6.13;;;;;;;10.01;51.14;100497.59;5053108;28;20124;-78
2023/05/04 06:18:04;;;;;;;9.63;5.60;;;;;;;10.08;51.46;100489.41;5052991;28;20048;-78
2023/05/04 06:20:31;;;;;;;8.32;5.97;;;;;;;10.16;51.23;100489.94;5053120;28;20056;-78
2023/05/04 06:22:57;;;;;;;9.68;5.85;;;;;;;10.22;51.17;100486.19;5053270;28;20059;-78
2023/05/04 06:25:24;;;;;;;8.88;5.68;;;;;;;10.29;51.18;100485.84;5052707;28;20554;-78
2023/05/04 06:27:50;;;;;;;10.15;5.65;;;;;;;10.38;51.29;100487.22;5052845;28;20489;-78
2023/05/04 06:30:17;;;;;;;8.35;5.38;;;;;;;10.46;51.39;100497.44;5053262;28;20099;-78
2023/05/04 06:32:43;;;;;;;8.23;5.82;;;;;;;10.57;51.44;100494.31;5053268;28;20044;-78
2023/05/04 06:35:12;;;;;;;8.65;5.25;;;;;;;10.66;51.48;100496.53;5053194;28;20041;-78
2023/05/04 06:37:39;;;;;;;12.90;6.10;;;;;;;10.77;51.26;100497.84;5052563;28;20049;-78
2023/05/04 06:40:06;;;;;;;9.52;6.47;;;;;;;10.88;51.17;100499.97;5052716;28;20049;-78
2023/05/04 06:42:33;;;;;;;10.68;6.03;;;;;;;10.97;51.17;100490.78;5051302;28;20098;-78
2023/05/04 06:44:59;;;;;;;10.32;5.63;;;;;;;11.06;51.18;100495.63;5050966;28;20049;-78
2023/05/04 06:47:26;;;;;;;7.75;4.95;;;;;;;11.16;51.10;100490.78;5052202;28;20115;-78
2023/05/04 06:49:53;;;;;;;6.35;5.55;;;;;;;11.25;51.20;100494.75;5052277;28;20059;-78
2023/05/04 06:52:20;;;;;;;7.97;5.57;;;;;;;11.32;51.06;100486.47;5052549;28;20045;-79
2023/05/04 06:54:47;;;;;;;8.90;6.22;;;;;;;11.43;51.08;100493.00;5050675;28;20060;-78
2023/05/04 06:57:13;;;;;;;8.40;5.47;;;;;;;11.53;50.93;100494.28;5052117;28;20045;-79
2023/05/04 06:59:40;;;;;;;7.95;5.70;;;;;;;11.64;51.11;100485.81;5052225;28;20490;-78
2023/05/04 07:02:06;;;;;;;7.68;5.28;;;;;;;11.76;51.03;100488.75;5052282;28;20519;-79
2023/05/04 07:04:33;;;;;;;10.10;5.80;;;;;;;11.87;50.88;100491.72;5052327;28;20061;-78
2023/05/04 07:06:59;;;;;;;8.60;5.78;;;;;;;11.99;50.69;100482.31;5051630;28;20068;-79
2023/05/04 07:09:26;;;;;;;8.60;5.30;;;;;;;12.08;50.60;100489.78;5050929;28;20048;-78
2023/05/04 07:11:52;;;;;;;9.15;5.45;;;;;;;12.19;50.36;100488.41;5052132;28;20076;-78
2023/05/04 07:14:18;;;;;;;14.60;5.75;;;;;;;12.29;50.36;100486.16;5051977;28;20139;-78
2023/05/04 07:16:45;;;;;;;8.73;5.28;;;;;;;12.37;50.29;100483.94;5051220;28;20057;-78
2023/05/04 07:19:11;;;;;;;10.20;5.75;;;;;;;12.48;50.47;100483.34;5052026;28;20140;-78
2023/05/04 07:21:38;;;;;;;11.82;5.22;;;;;;;12.59;50.48;100478.38;5051851;28;20053;-78
2023/05/04 07:24:05;;;;;;;6.95;5.20;;;;;;;12.70;50.29;100475.13;5051893;28;20060;-78
2023/05/04 07:26:35;;;;;;;8.23;4.97;;;;;;;12.81;50.33;100477.19;5051429;28;20053;-78
2023/05/04 07:29:01;;;;;;;11.07;5.18;;;;;;;12.94;50.07;100474.75;5051578;28;20683;-78
2023/05/04 07:31:27;;;;;;;8.85;5.25;;;;;;;13.06;49.89;100470.56;5051603;28;20052;-78
2023/05/04 07:33:56;;;;;;;9.48;4.97;;;;;;;13.16;49.92;100471.72;5051700;28;20160;-78
2023/05/04 07:36:25;;;;;;;10.68;5.30;;;;;;;13.27;49.91;100471.13;5051443;28;20075;-78
2023/05/04 07:38:52;;;;;;;7.70;5.03;;;;;;;13.38;49.80;100465.22;5051155;28;20061;-78
2023/05/04 07:41:19;;;;;;;10.75;5.18;;;;;;;13.50;49.46;100462.84;5051287;28;20448;-78
2023/05/04 07:43:45;;;;;;;9.77;4.78;;;;;;;13.59;49.37;100457.03;5051395;28;20091;-78
2023/05/04 07:46:12;;;;;;;8.35;4.88;;;;;;;13.68;49.09;100461.75;5051200;28;20064;-79
2023/05/04 07:48:39;;;;;;;7.53;4.50;;;;;;;13.79;49.27;100462.91;5051209;28;20132;-78
2023/05/04 07:51:05;;;;;;;9.93;5.22;;;;;;;13.87;49.12;100458.03;5051209;28;20049;-78
2023/05/04 07:53:31;;;;;;;7.13;4.57;;;;;;;13.97;48.99;100454.84;5051279;28;20052;-78
2023/05/04 07:56:06;;;;;;;5.28;4.00;;;;;;;14.03;49.16;100455.31;5050876;28;20056;-78
2023/05/04 07:58:33;;;;;;;8.57;4.40;;;;;;;14.17;49.21;100457.13;5050886;28;20167;-78
2023/05/04 08:00:59;;;;;;;10.63;4.18;;;;;;;14.30;49.06;100456.38;5050920;28;20490;-75
2023/05/04 08:03:25;;;;;;;9.50;4.18;;;;;;;14.40;48.83;100452.22;5050963;28;20455;-78
2023/05/04 08:05:52;;;;;;;5.55;4.47;;;;;;;14.54;48.74;100458.47;5049986;28;20066;-78
2023/05/04 08:08:19;;;;;;;5.72;3.85;;;;;;;14.65;48.83;100458.63;5050726;28;20085;-76
2023/05/04 08:10:47;;;;;;;6.88;4.22;;;;;;;14.79;48.55;100446.31;5050890;28;20123;-75
2023/05/04 08:13:13;;;;;;;6.72;4.25;;;;;;;14.92;48.57;100452.53;5050773;28;20049;-75
2023/05/04 08:15:40;;;;;;;11.43;4.07;;;;;;;15.06;48.31;100456.13;5050669;28;20045;-76
2023/05/04 08:18:06;;;;;;;10.35;4.18;;;;;;;15.21;48.34;100451.59;5050546;28;20053;-75
2023/05/04 08:20:33;;;;;;;9.73;4.55;;;;;;;15.34;48.32;100446.34;5050973;28;20084;-75
2023/05/04 08:23:01;;;;;;;7.13;4.28;;;;;;;15.49;48.15;100445.34;5050687;28;20183;-75
2023/05/04 08:25:28;;;;;;;7.68;4.82;;;;;;;15.63;48.05;100440.91;5050283;28;20511;-76
2023/05/04 08:27:55;;;;;;;9.15;4.60;;;;;;;15.77;47.76;100434.63;5048961;28;20079;-76
2023/05/04 08:30:22;;;;;;;8.05;4.05;;;;;;;15.91;47.31;100433.69;5050873;28;20075;-75
2023/05/04 08:32:50;;;;;;;9.68;4.50;;;;;;;16.05;47.10;100434.56;5050565;28;20566;-75
2023/05/04 08:35:16;;;;;;;7.43;4.22;;;;;;;16.19;47.22;100439.81;5049002;28;20044;-76
2023/05/04 08:37:43;;;;;;;5.03;3.85;;;;;;;16.33;46.99;100437.97;5050173;28;20041;-76
2023/05/04 08:40:11;;;;;;;9.18;4.60;;;;;;;16.48;47.24;100436.03;5050321;28;20505;-75
2023/05/04 08:42:39;;;;;;;7.20;3.90;;;;;;;16.63;47.02;100434.09;5050601;28;20057;-75
2023/05/04 08:45:06;;;;;;;6.57;4.13;;;;;;;16.79;46.49;100428.53;5050189;28;20052;-76
2023/05/04 08:47:32;;;;;;;6.55;4.32;;;;;;;16.93;46.12;100430.16;5048897;28;20123;-76
2023/05/04 08:49:59;;;;;;;8.70;4.40;;;;;;;17.03;45.65;100431.19;5050433;28;20057;-76
2023/05/04 08:52:27;;;;;;;5.57;4.28;;;;;;;17.14;45.50;100427.78;5050197;28;20053;-76
2023/05/04 08:54:55;;;;;;;6.50;4.22;;;;;;;17.23;45.46;100418.25;5048530;28;20280;-76
2023/05/04 08:57:23;;;;;;;6.45;4.32;;;;;;;17.31;45.56;100423.00;5050323;28;20061;-76
2023/05/04 08:59:52;;;;;;;9.20;4.82;;;;;;;17.38;45.40;100420.72;5050244;28;20052;-76
2023/05/04 09:02:21;;;;;;;6.55;4.30;;;;;;;17.45;44.86;100419.28;5050606;28;20053;-76
2023/05/04 09:04:48;;;;;;;5.95;4.07;;;;;;;17.50;44.89;100416.28;5049818;28;20053;-76
2023/05/04 09:07:17;;;;;;;6.40;4.32;;;;;;;17.53;44.45;100416.91;5049870;28;20048;-76
2023/05/04 09:09:44;;;;;;;8.77;5.00;;;;;;;17.57;44.75;100417.53;5050279;28;20049;-76
2023/05/04 09:12:11;;;;;;;8.82;4.50;;;;;;;17.62;44.64;100409.16;5050474;28;20052;-76
2023/05/04 09:14:38;;;;;;;9.27;5.10;;;;;;;17.65;44.77;100404.44;5050329;28;20061;-76
2023/05/04 09:17:16;;;;;;;7.03;4.60;;;;;;;17.67;44.73;100401.69;5050766;28;20091;-76
2023/05/04 09:19:43;;;;;;;9.20;4.60;;;;;;;17.75;44.92;100399.28;5054468;28;20049;-76
2023/05/04 09:22:17;;;;;;;8.52;4.25;;;;;;;17.80;45.62;100402.44;5054331;28;20053;-75
2023/05/04 09:24:46;;;;;;;8.00;4.93;;;;;;;17.91;45.10;100401.59;5052804;28;20049;-76
2023/05/04 09:27:17;;;;;;;7.25;4.68;;;;;;;18.00;45.26;100408.03;5053609;28;20048;-76
2023/05/04 09:29:52;;;;;;;6.70;4.45;;;;;;;18.08;44.69;100413.63;5054132;28;20041;-76
2023/05/04 09:32:19;;;;;;;6.97;4.70;;;;;;;18.21;44.68;100407.34;5054125;28;20053;-76
2023/05/04 09:34:53;;;;;;;7.47;4.68;;;;;;;18.29;44.63;100412.06;5053856;28;20049;-76
2023/05/04 09:37:20;;;;;;;6.15;4.47;;;;;;;18.36;44.38;100410.63;5052337;28;20057;-76
2023/05/04 09:39:57;;;;;;;6.80;5.05;;;;;;;18.42;44.08;100410.13;5053895;28;20422;-76
2023/05/04 09:42:25;;;;;;;11.25;5.53;;;;;;;18.53;44.30;100411.06;5053713;28;20048;-76
2023/05/04 09:45:00;;;;;;;8.98;5.10;;;;;;;18.58;44.24;100417.72;5052058;28;20056;-76
2023/05/04 09:47:46;;;;;;;7.43;4.78;;;;;;;18.67;43.88;100412.63;5052114;28;20471;-76
2023/05/04 09:50:13;;;;;;;8.68;4.70;;;;;;;18.79;43.87;100413.44;5053613;28;20091;-76
2023/05/04 09:52:43;;;;;;;5.25;4.30;;;;;;;18.86;44.06;100407.50;5052228;28;20060;-76
2023/05/04 09:55:12;;;;;;;10.00;5.05;;;;;;;18.94;44.40;100401.53;5051837;28;20532;-76
2023/05/04 09:57:43;;;;;;;10.50;4.95;;;;;;;19.04;44.70;100403.44;5053293;28;20057;-76
2023/05/04 10:00:15;;;;;;;6.65;4.97;;;;;;;19.15;44.76;100398.09;5053473;28;20084;-75
2023/05/04 10:02:46;;;;;;;9.82;5.03;;;;;;;19.27;44.03;100402.41;5053263;28;20409;-75
2023/05/04 10:05:16;;;;;;;11.45;5.50;;;;;;;19.41;44.38;100392.38;5053015;28;20049;-75
2023/05/04 10:07:43;;;;;;;12.10;5.50;;;;;;;19.54;43.87;100386.84;5052920;28;20068;-75
2023/05/04 10:10:14;;;;;;;7.88;4.93;;;;;;;19.65;43.27;100378.75;5051827;28;20535;-75
2023/05/04 10:12:43;;;;;;;6.60;5.10;;;;;;;19.77;43.23;100376.00;5053279;28;20048;-75
2023/05/04 10:15:11;;;;;;;9.13;5.07;;;;;;;19.88;43.53;100375.06;5051644;28;20517;-75
2023/05/04 10:18:03;;;;;;;7.53;4.80;;;;;;;19.96;43.33;100369.91;5052801;28;20044;-75
2023/05/04 10:20:51;;;;;;;7.32;5.03;;;;;;;20.07;42.96;100363.66;5053189;28;20056;-75
2023/05/04 10:23:55;;;;;;;8.25;4.43;;;;;;;20.18;42.73;100360.03;5053136;28;20041;-75
2023/05/04 10:26:50;;;;;;;6.15;4.25;;;;;;;20.25;42.08;100355.84;5052555;28;20080;-74
2023/05/04 10:29:21;;;;;;;7.75;4.90;;;;;;;20.33;42.03;100346.31;5052162;28;20056;-75
2023/05/04 10:31:49;;;;;;;9.05;5.13;;;;;;;20.38;42.11;100342.25;5052906;28;20560;-75
2023/05/04 10:34:33;;;;;;;9.00;4.72;;;;;;;20.36;41.89;100336.19;5051428;28;20053;-75
2023/05/04 10:37:01;;;;;;;8.73;5.10;;;;;;;20.47;42.20;100335.22;5052038;28;20556;-75
2023/05/04 10:39:31;;;;;;;9.88;5.50;;;;;;;20.52;42.37;100330.28;5052861;28;20045;-75
2023/05/04 10:42:00;;;;;;;7.65;4.43;;;;;;;20.61;42.22;100333.97;5052688;28;20382;-75
2023/05/04 10:44:28;;;;;;;8.52;3.97;;;;;;;20.70;41.80;100341.16;5052677;28;20114;-75
2023/05/04 10:47:03;;;;;;;5.93;4.25;;;;;;;20.82;41.31;100333.84;5052035;28;20079;-75
2023/05/04 10:49:31;;;;;;;6.00;4.20;;;;;;;20.96;41.32;100329.94;5052326;28;20057;-75
2023/05/04 10:52:07;;;;;;;6.95;4.03;;;;;;;21.08;40.67;100327.09;5052515;28;20056;-75
2023/05/04 10:54:36;;;;;;;6.95;4.50;;;;;;;21.27;41.65;100320.88;5052451;28;20044;-75
2023/05/04 10:57:04;;;;;;;4.93;3.60;;;;;;;21.46;41.42;100324.50;5050429;28;20052;-75
2023/05/04 10:59:32;;;;;;;7.28;3.85;;;;;;;21.71;41.05;100322.16;5052148;28;20748;-75
2023/05/04 11:02:02;;;;;;;5.55;3.65;;;;;;;21.95;40.77;100328.88;5052264;28;20056;-75
2023/05/04 11:04:29;;;;;;;5.85;3.47;;;;;;;22.17;40.46;100316.94;5052074;28;20053;-74
2023/05/04 11:07:00;;;;;;;9.93;3.28;;;;;;;22.40;39.75;100316.50;5051667;28;20075;-75
2023/05/04 11:09:28;;;;;;;6.25;3.33;;;;;;;22.63;39.92;100311.56;5052100;28;20402;-74
2023/05/04 11:11:55;;;;;;;6.53;3.13;;;;;;;22.87;38.92;100307.41;5052150;28;20430;-75
2023/05/04 11:14:24;;;;;;;6.32;3.15;;;;;;;23.12;37.45;100306.75;5051852;28;20119;-75
2023/05/04 11:16:52;;;;;;;3.63;2.65;;;;;;;23.35;37.76;100303.56;5051364;28;20458;-75
2023/05/04 11:19:18;;;;;;;5.10;3.00;;;;;;;23.55;37.54;100294.31;5051954;28;20067;-75
2023/05/04 11:21:45;;;;;;;8.38;2.60;;;;;;;23.76;37.77;100282.31;5051838;28;20378;-75
2023/05/04 11:24:12;;;;;;;3.40;2.63;;;;;;;23.99;37.24;100288.97;5051956;28;20099;-75
2023/05/04 11:26:47;;;;;;;8.18;3.15;;;;;;;24.18;36.88;100271.75;5051256;28;20057;-75
2023/05/04 11:29:14;;;;;;;5.50;2.78;;;;;;;24.44;36.69;100278.81;5051835;28;20049;-75
2023/05/04 11:31:43;;;;;;;5.78;3.17;;;;;;;24.64;36.33;100275.81;5051799;28;20517;-75
2023/05/04 11:34:17;;;;;;;6.28;2.88;;;;;;;24.78;35.67;100271.63;5051928;28;20049;-76